Terminal Aerodrome Forecast
Issued by NWS Charleston, WV

Current Version | Previous Version | Graphics & Text | Print | Product List | Glossary On
Versions: 1 2 3 4 5 6 7 8 9 10 11 12 13 14 15 16 17 18 19 20 21 22 23 24 25 26
967
FTUS41 KRLX 041810 RRA
TAFBKW
TAF
KBKW 041810Z 0418/0518 28006KT P6SM VCSH BKN040
     FM050100 26004KT 5SM SHRA VCTS OVC040CB
     FM050300 26004KT 4SM SHRA OVC025
     FM050700 24003KT 6SM BR OVC020
     FM051200 VRB03KT 1SM SHRA BR OVC004
     FM051500 31004KT 2SM SHRA HZ OVC006=

USA.gov is the U.S. government's official web portal to all federal, state and local government web resources and services.